Time;durP1;ratioP1;P1;durP2;ratioP2;P2;SDS_P1;SDS_P2;PMS_P1;PMS_P2;Temp;Humidity;BMP_temperature;BMP_pressure;BME280_temperature;BME280_humidity;BME280_pressure;Samples;Min_cycle;Max_cycle;Signal;HPM_P1;HPM_P2
2023/10/15 00:00:31;;;;;;;5.57;1.02;;;;;;;20.06;62.21;99381.44;4472823;32;33530;-81
2023/10/15 00:03:03;;;;;;;0.70;0.68;;;;;;;19.93;62.94;99372.78;4462645;32;32617;-80
2023/10/15 00:05:31;;;;;;;0.22;0.22;;;;;;;20.29;61.71;99368.63;4461417;32;32737;-80
2023/10/15 00:07:58;;;;;;;0.10;0.10;;;;;;;20.03;62.71;99376.34;4475888;32;33540;-80
2023/10/15 00:10:28;;;;;;;2.58;1.37;;;;;;;19.86;63.14;99377.00;4447536;32;33474;-80
2023/10/15 00:12:56;;;;;;;0.13;0.13;;;;;;;19.73;62.95;99393.31;4461812;32;33561;-80
2023/10/15 00:15:28;;;;;;;0.00;0.00;;;;;;;19.34;64.10;99401.13;4463330;32;32414;-81
2023/10/15 00:17:59;;;;;;;0.10;0.10;;;;;;;19.54;62.01;99412.78;4461763;32;34729;-81
2023/10/15 00:20:31;;;;;;;3.00;0.30;;;;;;;19.43;61.29;99426.28;4464040;32;34523;-81
2023/10/15 00:23:05;;;;;;;0.00;0.00;;;;;;;19.60;60.26;99432.88;4463690;32;33263;-81
2023/10/15 00:25:35;;;;;;;0.00;0.00;;;;;;;19.46;61.57;99431.34;4463112;32;33992;-81
2023/10/15 00:28:07;;;;;;;0.15;0.15;;;;;;;19.44;62.21;99444.87;4477807;32;33640;-81
2023/10/15 00:30:37;;;;;;;0.52;0.52;;;;;;;19.67;61.54;99452.78;4463993;32;34597;-80
2023/10/15 00:33:11;;;;;;;0.10;0.00;;;;;;;19.67;61.81;99459.00;4462429;32;32850;-80
2023/10/15 00:35:44;;;;;;;0.00;0.00;;;;;;;19.13;64.02;99462.72;4473577;32;33986;-80
2023/10/15 00:38:16;;;;;;;0.00;0.00;;;;;;;19.53;62.63;99453.94;4463386;32;34896;-80
2023/10/15 00:40:51;;;;;;;0.17;0.17;;;;;;;19.17;63.80;99428.50;4466214;32;32977;-80
2023/10/15 00:43:21;;;;;;;0.40;0.40;;;;;;;18.90;64.62;99431.69;4465265;32;33744;-80
2023/10/15 00:45:51;;;;;;;0.00;0.00;;;;;;;19.25;63.54;99436.72;4460680;32;32842;-80
2023/10/15 00:48:33;;;;;;;0.10;0.10;;;;;;;18.88;64.63;99453.22;4471918;32;34420;-80
2023/10/15 00:51:11;;;;;;;0.70;0.70;;;;;;;18.92;63.87;99449.31;4466213;32;32684;-80
2023/10/15 00:53:50;;;;;;;0.20;0.20;;;;;;;19.02;63.38;99449.38;4464342;32;34580;-80
2023/10/15 00:56:20;;;;;;;1.17;0.50;;;;;;;19.17;62.10;99453.44;4474200;32;33969;-80
2023/10/15 01:03:57;;;;;;;0.93;0.52;;;;;;;19.14;61.72;99453.72;4472180;32;33491;-81
2023/10/15 01:09:20;;;;;;;0.00;0.00;;;;;;;18.59;63.61;99473.47;4464268;32;33009;-80
2023/10/15 01:11:51;;;;;;;0.10;0.10;;;;;;;18.69;61.51;99469.09;4461773;32;33444;-80
2023/10/15 01:14:44;;;;;;;0.10;0.10;;;;;;;18.84;61.15;99458.94;4463166;32;32320;-80
2023/10/15 01:17:07;;;;;;;0.30;0.25;;;;;;;18.84;60.78;99464.28;4474515;32;34816;-81
2023/10/15 01:19:36;;;;;;;0.00;0.00;;;;;;;18.72;60.82;99459.97;4463019;32;34465;-80
2023/10/15 01:22:10;;;;;;;0.00;0.00;;;;;;;18.59;61.50;99460.94;4476482;32;34579;-80
2023/10/15 01:24:43;;;;;;;0.37;0.10;;;;;;;18.31;62.05;99451.66;4461208;32;32468;-80
2023/10/15 01:27:11;;;;;;;0.13;0.13;;;;;;;18.21;62.26;99455.19;4462251;32;33818;-80
2023/10/15 01:29:41;;;;;;;5.05;0.10;;;;;;;18.33;62.10;99464.91;4464136;32;33016;-80
2023/10/15 01:32:10;;;;;;;0.00;0.00;;;;;;;18.35;61.93;99458.44;4464713;32;32933;-81
2023/10/15 01:34:45;;;;;;;1.80;0.52;;;;;;;18.28;62.35;99462.63;4463056;32;34092;-81
2023/10/15 01:40:26;;;;;;;0.20;0.10;;;;;;;18.30;62.81;99476.69;4473762;32;34945;-81
2023/10/15 01:42:54;;;;;;;0.00;0.00;;;;;;;18.42;62.37;99469.50;4475528;32;34655;-81
2023/10/15 01:45:31;;;;;;;;;;;;;;;18.37;62.63;99479.69;4476388;32;32972;-81
2023/10/15 01:48:13;;;;;;;0.00;0.00;;;;;;;18.09;64.19;99476.59;4462378;32;33079;-81
2023/10/15 01:50:50;;;;;;;0.10;0.03;;;;;;;18.12;63.85;99487.03;4476170;32;33952;-81
2023/10/15 01:53:23;;;;;;;0.00;0.00;;;;;;;18.16;64.50;99495.66;4462428;32;34036;-80
2023/10/15 01:55:59;;;;;;;0.20;0.13;;;;;;;17.91;66.03;99507.44;4478098;32;32577;-80
2023/10/15 01:58:31;;;;;;;0.25;0.25;;;;;;;18.15;65.29;99504.66;4461967;32;34183;-80
2023/10/15 02:01:13;;;;;;;0.00;0.00;;;;;;;18.28;64.32;99494.69;4447911;32;34532;-80
2023/10/15 02:03:42;;;;;;;3.97;0.32;;;;;;;18.42;64.02;99490.91;4473969;32;34259;-80
2023/10/15 02:06:09;;;;;;;0.00;0.00;;;;;;;18.64;63.00;99485.47;4460455;32;32993;-80
2023/10/15 02:08:39;;;;;;;0.25;0.25;;;;;;;18.60;63.25;99486.69;4474307;32;34339;-80
2023/10/15 02:11:25;;;;;;;0.00;0.00;;;;;;;18.08;65.78;99485.56;4460971;32;33593;-80
2023/10/15 02:13:55;;;;;;;0.20;0.20;;;;;;;18.02;66.14;99485.22;4461392;32;33995;-80
2023/10/15 02:16:29;;;;;;;0.00;0.00;;;;;;;18.19;65.40;99478.53;4463065;32;33531;-80
2023/10/15 02:18:58;;;;;;;0.08;0.08;;;;;;;18.43;64.26;99471.22;4462130;32;33613;-80
2023/10/15 02:21:31;;;;;;;0.03;0.03;;;;;;;18.30;64.62;99475.84;4473105;32;33964;-80
2023/10/15 02:24:08;;;;;;;0.00;0.00;;;;;;;18.10;65.35;99483.63;4461113;32;34027;-80
2023/10/15 02:26:37;;;;;;;0.00;0.00;;;;;;;18.19;64.99;99474.03;4470983;32;33659;-80
2023/10/15 02:29:27;;;;;;;0.10;0.10;;;;;;;18.06;65.48;99474.16;4476307;32;34509;-80
2023/10/15 02:31:58;;;;;;;0.10;0.10;;;;;;;18.01;65.70;99484.38;4475570;32;34464;-80
2023/10/15 02:34:27;;;;;;;0.00;0.00;;;;;;;17.70;67.05;99487.72;4460987;32;32556;-80
2023/10/15 02:37:03;;;;;;;0.00;0.00;;;;;;;17.34;68.64;99492.28;4475758;32;32729;-80
2023/10/15 02:39:38;;;;;;;0.28;0.28;;;;;;;17.32;69.13;99500.38;4476628;32;34625;-79
2023/10/15 02:42:06;;;;;;;0.00;0.00;;;;;;;17.26;68.91;99503.53;4473387;32;35146;-80
2023/10/15 02:44:34;;;;;;;0.10;0.00;;;;;;;17.27;68.89;99510.56;4461327;32;34115;-81
2023/10/15 02:47:10;;;;;;;0.03;0.03;;;;;;;17.51;68.23;99510.50;4453829;32;33515;-80
2023/10/15 02:49:52;;;;;;;0.00;0.00;;;;;;;17.57;68.18;99519.88;4462547;32;34693;-80
2023/10/15 02:52:23;;;;;;;0.10;0.00;;;;;;;17.34;69.04;99518.97;4462073;32;34333;-80
2023/10/15 02:54:51;;;;;;;0.10;0.10;;;;;;;17.55;68.31;99527.13;4462749;32;33069;-81
2023/10/15 02:57:20;;;;;;;0.00;0.00;;;;;;;17.61;67.62;99518.66;4461937;32;33161;-81
2023/10/15 02:59:51;;;;;;;0.00;0.00;;;;;;;17.84;66.54;99528.41;4473464;32;33584;-82
2023/10/15 03:02:20;;;;;;;0.00;0.00;;;;;;;17.79;66.74;99529.75;4461969;32;32723;-81
2023/10/15 03:04:55;;;;;;;0.00;0.00;;;;;;;18.28;64.59;99526.75;4460455;32;34523;-80
2023/10/15 03:07:30;;;;;;;0.00;0.00;;;;;;;18.12;64.55;99532.44;4451263;32;32916;-79
2023/10/15 03:09:58;;;;;;;0.03;0.03;;;;;;;18.14;64.58;99527.00;4469256;32;32086;-79
2023/10/15 03:12:33;;;;;;;0.00;0.00;;;;;;;17.86;65.54;99521.16;4463225;32;33020;-81
2023/10/15 03:15:03;;;;;;;0.00;0.00;;;;;;;17.66;66.13;99516.50;4476147;32;34464;-81
2023/10/15 03:17:31;;;;;;;0.20;0.03;;;;;;;17.76;65.68;99508.66;4462830;32;32167;-80
2023/10/15 03:20:11;;;;;;;0.00;0.00;;;;;;;17.72;65.84;99499.16;4463245;32;34527;-80
2023/10/15 03:22:39;;;;;;;0.10;0.10;;;;;;;17.56;66.02;99507.47;4476260;32;34749;-80
2023/10/15 03:25:13;;;;;;;0.00;0.00;;;;;;;17.63;66.15;99504.22;4461930;32;32824;-81
2023/10/15 03:27:47;;;;;;;0.40;0.40;;;;;;;17.34;66.85;99508.28;4463969;32;34020;-80
2023/10/15 03:30:22;;;;;;;0.85;0.85;;;;;;;17.71;65.67;99500.09;4464134;32;33191;-80
2023/10/15 03:32:52;;;;;;;0.00;0.00;;;;;;;17.76;65.10;99503.31;4474836;31;32991;-80
2023/10/15 03:35:38;;;;;;;0.20;0.10;;;;;;;17.76;65.14;99497.97;4462862;32;33617;-80
2023/10/15 03:38:13;;;;;;;0.30;0.15;;;;;;;17.67;65.01;99520.84;4465070;32;33777;-80
2023/10/15 03:40:50;;;;;;;0.10;0.10;;;;;;;17.78;64.74;99517.38;4461051;32;35473;-80
2023/10/15 03:43:21;;;;;;;0.60;0.57;;;;;;;17.16;66.97;99515.88;4464085;32;34173;-81
2023/10/15 03:45:51;;;;;;;0.00;0.00;;;;;;;17.37;66.45;99514.22;4462982;32;34220;-81
2023/10/15 03:48:30;;;;;;;0.00;0.00;;;;;;;17.79;64.54;99511.91;4448571;32;32276;-80
2023/10/15 03:50:58;;;;;;;0.00;0.00;;;;;;;17.70;64.63;99519.75;4474664;32;33834;-80
2023/10/15 03:53:35;;;;;;;0.68;0.20;;;;;;;17.50;65.40;99519.47;4476289;32;33561;-81
2023/10/15 03:56:04;;;;;;;0.00;0.00;;;;;;;17.06;67.03;99518.38;4471852;32;33564;-81
2023/10/15 03:58:32;;;;;;;0.00;0.00;;;;;;;17.00;67.46;99521.50;4476897;32;33307;-81
2023/10/15 04:01:13;;;;;;;0.05;0.05;;;;;;;17.28;65.39;99511.41;4462041;32;34234;-81
2023/10/15 04:03:47;;;;;;;0.62;0.15;;;;;;;17.35;63.83;99493.97;4462284;32;34033;-80
2023/10/15 04:06:17;;;;;;;0.10;0.10;;;;;;;17.00;63.29;99494.00;4475928;32;34057;-80
2023/10/15 04:11:41;;;;;;;0.05;0.05;;;;;;;16.60;64.41;99497.75;4461165;32;32872;-80
2023/10/15 04:16:50;;;;;;;10.35;0.47;;;;;;;16.69;62.60;99490.87;4474693;32;33624;-80
2023/10/15 04:19:18;;;;;;;0.00;0.00;;;;;;;16.29;63.94;99495.63;4461781;32;32678;-81
2023/10/15 04:21:46;;;;;;;0.10;0.10;;;;;;;16.23;64.37;99501.38;4462666;32;33383;-81
2023/10/15 04:24:17;;;;;;;0.00;0.00;;;;;;;16.50;63.33;99517.19;4460871;32;34586;-81
2023/10/15 04:26:48;;;;;;;0.08;0.08;;;;;;;16.77;61.93;99517.03;4462603;32;34435;-82
2023/10/15 04:29:16;;;;;;;0.75;0.40;;;;;;;16.76;61.77;99521.50;4475681;32;33583;-81
2023/10/15 04:31:51;;;;;;;0.28;0.28;;;;;;;16.65;62.19;99527.56;4463577;32;32893;-81
2023/10/15 04:34:19;;;;;;;0.10;0.05;;;;;;;16.41;62.99;99540.03;4463263;32;34716;-80
2023/10/15 04:36:48;;;;;;;0.08;0.08;;;;;;;16.28;61.82;99539.19;4470887;32;33808;-79
2023/10/15 04:39:16;;;;;;;0.70;0.52;;;;;;;16.50;60.53;99531.38;4462398;32;34140;-80
2023/10/15 04:41:55;;;;;;;1.15;0.17;;;;;;;16.63;59.63;99528.66;4462651;32;35085;-80
2023/10/15 04:44:31;;;;;;;0.62;0.55;;;;;;;16.41;60.06;99518.69;4458993;32;33889;-78
2023/10/15 04:47:06;;;;;;;0.37;0.37;;;;;;;16.22;60.72;99526.31;4459105;32;33930;-80
2023/10/15 04:49:34;;;;;;;0.00;0.00;;;;;;;16.45;59.26;99514.84;4471027;32;32638;-79
2023/10/15 04:52:13;;;;;;;0.00;0.00;;;;;;;16.01;60.61;99529.53;4459851;32;33201;-80
2023/10/15 04:54:41;;;;;;;0.85;0.50;;;;;;;16.23;59.70;99542.19;4463106;32;31747;-80
2023/10/15 04:57:09;;;;;;;0.20;0.20;;;;;;;16.09;60.43;99553.84;4472267;32;31963;-80
2023/10/15 04:59:37;;;;;;;0.32;0.32;;;;;;;15.86;60.76;99551.94;4472761;32;31978;-80
2023/10/15 05:02:04;;;;;;;0.00;0.00;;;;;;;15.74;60.87;99566.91;4470234;32;31905;-79
2023/10/15 05:04:33;;;;;;;2.10;0.98;;;;;;;15.85;60.95;99579.50;4460878;32;34755;-81
2023/10/15 05:07:00;;;;;;;0.10;0.10;;;;;;;15.83;61.44;99595.56;4462098;32;33216;-80
2023/10/15 05:09:31;;;;;;;0.62;0.62;;;;;;;16.12;60.03;99598.88;4473857;32;33212;-80
2023/10/15 05:11:58;;;;;;;0.30;0.30;;;;;;;15.47;62.19;99601.53;4472668;32;31884;-80
2023/10/15 05:14:26;;;;;;;0.00;0.00;;;;;;;16.01;59.47;99587.28;4475082;32;33549;-80
2023/10/15 05:16:54;;;;;;;0.00;0.00;;;;;;;16.10;59.55;99579.50;4470450;32;33286;-80
2023/10/15 05:19:21;;;;;;;0.10;0.10;;;;;;;16.18;59.31;99575.44;4473677;32;33506;-79
2023/10/15 05:21:49;;;;;;;0.17;0.17;;;;;;;15.87;60.41;99577.59;4472208;32;31970;-80
2023/10/15 05:24:18;;;;;;;0.30;0.30;;;;;;;15.81;60.15;99575.34;4475706;32;32022;-79
2023/10/15 05:26:46;;;;;;;0.10;0.10;;;;;;;16.01;59.36;99566.84;4459336;32;33680;-80
2023/10/15 05:29:15;;;;;;;0.00;0.00;;;;;;;15.94;60.08;99589.50;4461704;32;32529;-80
2023/10/15 05:31:43;;;;;;;0.32;0.32;;;;;;;15.48;62.04;99602.41;4472497;32;32874;-80
2023/10/15 05:34:11;;;;;;;4.62;0.57;;;;;;;15.72;61.70;99595.47;4474337;32;33773;-80
2023/10/15 05:36:39;;;;;;;0.93;0.20;;;;;;;15.37;63.25;99616.41;4449197;32;31725;-80
2023/10/15 05:39:08;;;;;;;1.60;0.30;;;;;;;15.52;62.24;99611.87;4459525;32;33595;-79
2023/10/15 05:41:37;;;;;;;0.00;0.00;;;;;;;15.89;60.12;99602.28;4473727;32;34089;-79
2023/10/15 05:44:05;;;;;;;2.95;0.93;;;;;;;15.62;61.24;99611.19;4461068;32;32384;-78
2023/10/15 05:46:33;;;;;;;0.13;0.13;;;;;;;15.63;60.50;99628.00;4446960;32;32871;-80
2023/10/15 05:49:01;;;;;;;0.00;0.00;;;;;;;15.76;60.58;99622.72;4472842;32;31911;-80
2023/10/15 05:51:32;;;;;;;0.00;0.00;;;;;;;15.99;58.99;99624.66;4473980;32;31124;-80
2023/10/15 05:54:00;;;;;;;0.47;0.47;;;;;;;16.02;59.15;99615.62;4449392;32;32912;-79
2023/10/15 05:56:28;;;;;;;0.35;0.35;;;;;;;16.10;58.43;99627.44;4462469;32;33499;-79
2023/10/15 05:58:57;;;;;;;0.10;0.10;;;;;;;15.22;61.50;99649.34;4457256;32;32591;-79
2023/10/15 06:01:25;;;;;;;0.00;0.00;;;;;;;15.22;62.03;99668.81;4460568;32;34548;-79
2023/10/15 06:03:52;;;;;;;4.57;0.80;;;;;;;15.48;61.36;99663.63;4458400;32;32947;-79
2023/10/15 06:06:20;;;;;;;0.10;0.10;;;;;;;15.27;61.77;99665.87;4460160;32;34148;-80
2023/10/15 06:08:49;;;;;;;0.00;0.00;;;;;;;15.54;60.11;99669.38;4472850;32;33150;-80
2023/10/15 06:11:17;;;;;;;6.53;2.05;;;;;;;15.35;60.97;99676.88;4460681;32;33877;-78
2023/10/15 06:13:44;;;;;;;0.45;0.45;;;;;;;15.58;59.72;99670.88;4456450;32;34164;-79
2023/10/15 06:16:14;;;;;;;0.00;0.00;;;;;;;15.46;60.12;99674.34;4473195;32;34086;-79
2023/10/15 06:18:42;;;;;;;0.10;0.10;;;;;;;15.67;59.53;99682.78;4473157;32;33341;-79
2023/10/15 06:21:10;;;;;;;0.00;0.00;;;;;;;15.87;59.38;99670.78;4460248;32;33799;-79
2023/10/15 06:23:37;;;;;;;0.00;0.00;;;;;;;15.63;60.05;99673.25;4458135;32;34821;-79
2023/10/15 06:26:06;;;;;;;0.00;0.00;;;;;;;15.54;60.33;99671.19;4460099;32;33739;-79
2023/10/15 06:28:33;;;;;;;0.00;0.00;;;;;;;15.32;60.88;99669.06;4473617;32;34015;-79
2023/10/15 06:31:02;;;;;;;0.08;0.08;;;;;;;15.12;62.13;99667.72;4471981;32;32885;-79
2023/10/15 06:33:31;;;;;;;3.87;1.00;;;;;;;15.25;61.46;99654.50;4459958;32;33084;-79
2023/10/15 06:35:59;;;;;;;1.08;0.22;;;;;;;14.90;62.43;99648.75;4451619;32;32891;-79
2023/10/15 06:38:26;;;;;;;0.25;0.25;;;;;;;15.16;61.95;99652.41;4460043;32;33804;-79
2023/10/15 06:40:54;;;;;;;0.45;0.22;;;;;;;14.96;62.62;99659.03;4460225;32;32620;-79
2023/10/15 06:43:23;;;;;;;0.57;0.57;;;;;;;15.32;61.25;99656.63;4472119;32;32863;-79
2023/10/15 06:45:51;;;;;;;0.00;0.00;;;;;;;15.16;61.04;99660.41;4448888;32;33862;-79
2023/10/15 06:48:22;;;;;;;0.35;0.22;;;;;;;14.73;62.60;99668.47;4449902;32;31767;-79
2023/10/15 06:50:53;;;;;;;0.40;0.40;;;;;;;15.08;61.76;99669.72;4471654;32;32100;-80
2023/10/15 06:53:23;;;;;;;0.70;0.68;;;;;;;15.14;60.42;99654.31;4460486;32;32005;-79
2023/10/15 06:55:51;;;;;;;4.18;1.70;;;;;;;14.74;61.72;99643.59;4448910;32;34037;-79
2023/10/15 06:58:19;;;;;;;11.00;1.58;;;;;;;14.81;61.76;99644.88;4463023;32;33453;-79
2023/10/15 07:00:46;;;;;;;1.08;0.05;;;;;;;15.06;60.58;99650.34;4461490;32;33722;-79
2023/10/15 07:03:15;;;;;;;0.00;0.00;;;;;;;14.91;60.63;99639.84;4461926;32;34037;-80
2023/10/15 07:05:43;;;;;;;0.00;0.00;;;;;;;14.93;60.21;99635.28;4458527;32;34358;-79
2023/10/15 07:08:11;;;;;;;0.82;0.77;;;;;;;14.94;59.96;99635.19;4448807;32;33256;-79
2023/10/15 07:10:39;;;;;;;0.65;0.65;;;;;;;14.80;60.72;99624.56;4461522;32;33363;-79
2023/10/15 07:13:07;;;;;;;0.32;0.32;;;;;;;14.93;60.00;99614.03;4458746;32;33865;-79
2023/10/15 07:15:36;;;;;;;0.00;0.00;;;;;;;15.04;58.81;99625.66;4463154;32;33873;-79
2023/10/15 07:18:04;;;;;;;0.17;0.08;;;;;;;15.09;59.15;99671.41;4471783;32;33501;-79
2023/10/15 07:20:32;;;;;;;0.20;0.20;;;;;;;14.30;61.95;99697.66;4448235;32;33135;-80
2023/10/15 07:23:00;;;;;;;0.25;0.25;;;;;;;14.68;60.41;99713.06;4448840;32;33687;-79
2023/10/15 07:25:28;;;;;;;0.68;0.68;;;;;;;14.63;61.48;99720.47;4472294;32;33259;-79
2023/10/15 07:27:58;;;;;;;1.42;1.33;;;;;;;14.81;60.68;99736.13;4450043;32;32974;-79
2023/10/15 07:30:26;;;;;;;0.60;0.60;;;;;;;15.06;59.77;99731.94;4459615;32;33355;-79
2023/10/15 07:32:57;;;;;;;1.90;0.73;;;;;;;14.98;59.46;99727.09;4458388;32;33248;-79
2023/10/15 07:35:27;;;;;;;0.73;0.73;;;;;;;14.34;62.33;99733.69;4449104;32;32198;-79
2023/10/15 07:37:56;;;;;;;0.32;0.32;;;;;;;14.36;61.66;99734.44;4448937;32;32009;-79
2023/10/15 07:40:26;;;;;;;0.60;0.60;;;;;;;14.89;59.69;99740.97;4473247;31;33622;-79
2023/10/15 07:43:08;;;;;;;0.00;0.00;;;;;;;14.71;60.89;99750.91;4460100;32;33914;-79
2023/10/15 07:45:37;;;;;;;0.10;0.10;;;;;;;15.16;59.09;99718.91;4460576;32;33015;-80
2023/10/15 07:48:07;;;;;;;0.05;0.05;;;;;;;15.16;59.15;99721.56;4456804;32;32465;-79
2023/10/15 07:50:45;;;;;;;0.13;0.13;;;;;;;15.40;58.28;99727.97;4461776;32;31951;-80
2023/10/15 07:53:13;;;;;;;0.37;0.25;;;;;;;15.52;57.70;99715.66;4450495;32;33335;-79
2023/10/15 07:55:41;;;;;;;0.28;0.25;;;;;;;15.46;58.04;99716.91;4472883;32;32698;-80
2023/10/15 07:58:09;;;;;;;0.00;0.00;;;;;;;15.51;57.98;99720.13;4472241;32;34675;-79
2023/10/15 08:00:38;;;;;;;0.00;0.00;;;;;;;15.36;59.10;99721.13;4473804;32;32595;-81
2023/10/15 08:03:14;;;;;;;0.32;0.28;;;;;;;15.67;57.83;99709.38;4460243;32;33836;-79
2023/10/15 08:05:46;;;;;;;0.00;0.00;;;;;;;15.60;57.66;99714.22;4463109;32;33808;-80
2023/10/15 08:08:14;;;;;;;0.98;0.65;;;;;;;15.80;57.39;99702.25;4473645;31;33950;-79
2023/10/15 08:10:42;;;;;;;0.00;0.00;;;;;;;15.48;58.04;99685.75;4452713;32;31966;-80
2023/10/15 08:13:10;;;;;;;1.25;0.05;;;;;;;15.38;59.03;99700.59;4459647;32;32949;-82
2023/10/15 08:15:38;;;;;;;0.68;0.32;;;;;;;15.32;59.82;99709.84;4445825;32;33419;-80
2023/10/15 08:18:07;;;;;;;0.10;0.10;;;;;;;15.45;59.57;99714.38;4463601;32;32692;-80
2023/10/15 08:20:35;;;;;;;0.00;0.00;;;;;;;15.83;58.23;99722.53;4461522;32;33421;-80
2023/10/15 08:23:03;;;;;;;1.25;0.60;;;;;;;15.95;57.54;99711.06;4477149;32;33723;-79
2023/10/15 08:25:32;;;;;;;0.52;0.37;;;;;;;16.09;57.22;99708.31;4463415;32;32280;-79
2023/10/15 08:28:02;;;;;;;2.45;0.80;;;;;;;16.15;56.36;99716.84;4458173;32;32383;-79
2023/10/15 08:30:32;;;;;;;0.10;0.10;;;;;;;15.78;57.43;99706.84;4472840;32;32632;-79
2023/10/15 08:33:03;;;;;;;0.00;0.00;;;;;;;15.67;57.74;99703.22;4469787;32;33468;-79
2023/10/15 08:35:32;;;;;;;1.25;0.82;;;;;;;15.99;55.84;99704.53;4473521;32;32929;-79
2023/10/15 08:38:03;;;;;;;0.20;0.20;;;;;;;15.82;56.44;99705.69;4460450;32;32669;-79
2023/10/15 08:40:33;;;;;;;0.17;0.17;;;;;;;16.10;54.63;99710.03;4463005;32;32787;-81
2023/10/15 08:43:32;;;;;;;0.28;0.28;;;;;;;15.96;54.76;99726.06;4469830;32;33530;-80
2023/10/15 08:46:00;;;;;;;0.10;0.10;;;;;;;15.86;55.80;99720.50;4461426;32;33528;-79
2023/10/15 08:48:28;;;;;;;6.32;1.10;;;;;;;15.78;55.41;99717.50;4471770;32;33415;-80
2023/10/15 08:50:57;;;;;;;0.28;0.20;;;;;;;15.60;56.30;99716.03;4459507;32;33191;-79
2023/10/15 08:53:26;;;;;;;0.10;0.10;;;;;;;15.98;54.50;99717.97;4471925;32;32423;-79
2023/10/15 08:55:57;;;;;;;0.08;0.03;;;;;;;15.81;55.77;99724.44;4470422;32;33972;-80
2023/10/15 08:58:25;;;;;;;0.35;0.35;;;;;;;15.84;55.19;99724.22;4464154;32;33256;-79
2023/10/15 09:00:57;;;;;;;0.00;0.00;;;;;;;15.75;53.80;99722.16;4464112;32;34324;-79
2023/10/15 09:03:25;;;;;;;0.28;0.28;;;;;;;15.30;56.47;99714.41;4460526;32;34666;-79
2023/10/15 09:05:52;;;;;;;0.00;0.00;;;;;;;15.91;53.52;99714.88;4460751;32;33559;-80
2023/10/15 09:08:20;;;;;;;0.03;0.00;;;;;;;16.16;53.57;99703.41;4462386;32;32429;-80
2023/10/15 09:10:52;;;;;;;1.10;1.00;;;;;;;16.21;53.25;99697.78;4459158;32;31929;-82
2023/10/15 09:13:21;;;;;;;0.00;0.00;;;;;;;15.83;52.99;99699.41;4460355;32;33671;-82
2023/10/15 09:15:52;;;;;;;0.13;0.13;;;;;;;15.92;53.91;99686.44;4457721;32;32902;-80
2023/10/15 09:18:20;;;;;;;0.00;0.00;;;;;;;15.86;54.32;99693.03;4460959;32;33574;-81
2023/10/15 09:20:51;;;;;;;0.13;0.13;;;;;;;15.54;56.32;99697.81;4473245;32;34503;-81
2023/10/15 09:23:23;;;;;;;0.32;0.32;;;;;;;15.88;54.34;99689.31;4458633;32;34186;-81
2023/10/15 09:25:53;;;;;;;0.00;0.00;;;;;;;15.93;54.50;99714.78;4473410;31;32889;-81
2023/10/15 09:28:22;;;;;;;1.80;0.40;;;;;;;15.54;55.82;99713.78;4460116;32;33323;-81
2023/10/15 09:30:51;;;;;;;6.12;1.10;;;;;;;15.87;54.52;99724.88;4461903;32;34562;-81
2023/10/15 09:33:27;;;;;;;0.05;0.05;;;;;;;16.09;54.06;99716.31;4449419;32;32994;-81
2023/10/15 09:35:56;;;;;;;0.37;0.37;;;;;;;16.02;54.07;99709.69;4462469;32;33325;-81
2023/10/15 09:38:23;;;;;;;0.85;0.73;;;;;;;16.55;52.38;99701.63;4458046;32;33388;-81
2023/10/15 09:40:55;;;;;;;0.43;0.17;;;;;;;16.62;51.53;99690.44;4461156;32;32905;-81
2023/10/15 09:43:26;;;;;;;0.08;0.08;;;;;;;16.26;52.24;99701.81;4462328;32;33605;-81
2023/10/15 09:45:54;;;;;;;0.32;0.28;;;;;;;16.18;51.72;99700.62;4459420;32;33758;-81
2023/10/15 09:48:23;;;;;;;1.60;0.68;;;;;;;16.43;51.21;99711.34;4472197;32;33127;-81
2023/10/15 09:50:53;;;;;;;0.20;0.20;;;;;;;16.24;51.93;99714.41;4457738;32;33041;-81
2023/10/15 09:53:22;;;;;;;0.20;0.20;;;;;;;16.10;53.28;99720.69;4459102;32;33120;-81
2023/10/15 09:55:51;;;;;;;0.00;0.00;;;;;;;16.19;52.97;99721.88;4472852;32;33729;-81
2023/10/15 09:58:42;;;;;;;0.47;0.45;;;;;;;16.35;51.54;99724.31;4462569;32;32314;-81
2023/10/15 10:01:28;;;;;;;1.02;1.00;;;;;;;16.45;50.77;99735.19;4472035;32;32978;-82
2023/10/15 10:04:18;;;;;;;0.52;0.50;;;;;;;16.20;51.83;99733.38;4458936;32;34217;-81
2023/10/15 10:07:05;;;;;;;0.55;0.10;;;;;;;15.93;51.87;99731.59;4462034;32;33743;-81
2023/10/15 10:09:42;;;;;;;0.17;0.17;;;;;;;16.20;51.66;99733.38;4462125;32;33075;-81
2023/10/15 10:12:19;;;;;;;0.00;0.00;;;;;;;16.36;49.57;99726.87;4459726;32;33144;-81
2023/10/15 10:15:22;;;;;;;0.62;0.55;;;;;;;16.06;50.44;99735.16;4468366;32;33726;-81
2023/10/15 10:17:50;;;;;;;13.23;1.65;;;;;;;16.02;50.92;99732.78;4462943;32;33265;-81
2023/10/15 10:20:21;;;;;;;0.70;0.70;;;;;;;16.05;50.11;99736.13;4459540;32;33764;-81
2023/10/15 10:23:08;;;;;;;0.17;0.08;;;;;;;16.09;49.89;99737.62;4471712;32;33143;-82
2023/10/15 10:25:39;;;;;;;0.32;0.30;;;;;;;16.31;48.79;99739.66;4471650;32;32990;-81
2023/10/15 10:28:11;;;;;;;9.48;0.32;;;;;;;16.25;50.17;99741.91;4456196;32;33103;-81
2023/10/15 10:30:55;;;;;;;15.70;0.45;;;;;;;16.09;49.50;99737.62;4470745;32;32101;-81
2023/10/15 10:33:46;;;;;;;0.22;0.22;;;;;;;16.19;49.10;99734.31;4459797;32;33357;-81
2023/10/15 10:36:22;;;;;;;1.00;0.75;;;;;;;16.32;48.21;99721.84;4465820;32;31971;-81
2023/10/15 10:38:57;;;;;;;10.85;1.65;;;;;;;15.76;49.17;99729.19;4458454;32;33248;-81
2023/10/15 10:41:39;;;;;;;0.20;0.10;;;;;;;16.04;49.13;99730.88;4460321;32;32216;-81
2023/10/15 10:44:28;;;;;;;5.28;0.55;;;;;;;16.49;48.10;99732.22;4460586;32;34643;-81
2023/10/15 10:46:56;;;;;;;1.20;1.10;;;;;;;16.48;47.91;99733.19;4461332;32;33077;-81
2023/10/15 10:49:34;;;;;;;1.15;0.57;;;;;;;16.43;48.41;99735.31;4460737;32;34480;-81
2023/10/15 10:52:18;;;;;;;0.30;0.30;;;;;;;16.32;47.97;99732.53;4471707;32;34218;-81
2023/10/15 10:54:46;;;;;;;23.05;0.77;;;;;;;16.18;48.20;99738.78;4473675;32;33610;-81
2023/10/15 10:57:18;;;;;;;4.10;1.00;;;;;;;16.45;48.11;99738.72;4477494;32;33980;-81
2023/10/15 10:59:46;;;;;;;0.00;0.00;;;;;;;16.44;48.00;99737.00;4470043;32;34516;-81
2023/10/15 11:02:14;;;;;;;0.13;0.13;;;;;;;16.02;48.80;99746.12;4447050;32;33355;-81
2023/10/15 11:04:42;;;;;;;0.00;0.00;;;;;;;15.81;49.53;99735.09;4459503;32;34197;-81
2023/10/15 11:07:11;;;;;;;0.00;0.00;;;;;;;15.81;49.75;99732.44;4470720;32;33240;-81
2023/10/15 11:09:39;;;;;;;0.90;0.52;;;;;;;15.86;50.06;99751.63;4459082;32;33539;-81
2023/10/15 11:12:12;;;;;;;0.30;0.30;;;;;;;16.22;48.65;99750.09;4462222;32;32320;-81
2023/10/15 11:14:40;;;;;;;0.10;0.10;;;;;;;16.33;48.16;99745.75;4470071;32;32721;-82
2023/10/15 11:17:08;;;;;;;2.50;0.85;;;;;;;16.01;49.36;99744.41;4470277;32;32146;-81
2023/10/15 11:19:37;;;;;;;0.62;0.62;;;;;;;16.10;48.32;99741.13;4457508;32;33912;-80
2023/10/15 11:22:05;;;;;;;2.85;1.23;;;;;;;16.38;47.67;99732.13;4448715;32;32188;-80
2023/10/15 11:24:34;;;;;;;0.73;0.52;;;;;;;16.62;46.65;99729.56;4456250;32;32526;-80
2023/10/15 11:27:06;;;;;;;0.03;0.03;;;;;;;16.45;47.75;99725.38;4468489;32;34821;-81
2023/10/15 11:29:35;;;;;;;0.00;0.00;;;;;;;16.08;48.78;99735.88;4451114;32;31544;-80
2023/10/15 11:32:03;;;;;;;0.00;0.00;;;;;;;16.59;47.57;99735.09;4469939;32;36030;-81
2023/10/15 11:34:33;;;;;;;0.15;0.15;;;;;;;16.38;47.37;99737.44;4471913;32;34568;-80
2023/10/15 11:37:02;;;;;;;2.08;0.43;;;;;;;16.34;47.63;99730.62;4472311;32;33483;-80
2023/10/15 11:39:38;;;;;;;3.50;0.80;;;;;;;16.49;47.39;99734.87;4457708;32;34818;-80
2023/10/15 11:42:07;;;;;;;2.50;1.73;;;;;;;16.46;46.55;99735.09;4461884;32;34836;-81
2023/10/15 11:44:42;;;;;;;0.47;0.45;;;;;;;16.32;47.47;99744.03;4460862;32;33213;-80
2023/10/15 11:47:15;;;;;;;0.20;0.20;;;;;;;16.30;48.00;99745.09;4453031;32;157472;-80
2023/10/15 11:49:45;;;;;;;5.60;1.85;;;;;;;16.59;47.73;99743.94;4460583;32;33725;-80
2023/10/15 11:52:22;;;;;;;0.00;0.00;;;;;;;16.69;46.34;99735.31;4459856;32;33382;-80
2023/10/15 11:54:50;;;;;;;0.65;0.60;;;;;;;16.36;46.74;99740.19;4472956;32;33151;-80
2023/10/15 11:57:22;;;;;;;0.40;0.35;;;;;;;16.61;46.73;99723.34;4458720;32;32951;-80
2023/10/15 11:59:51;;;;;;;0.22;0.22;;;;;;;16.73;45.99;99715.50;4471858;32;31941;-80
2023/10/15 12:02:25;;;;;;;0.20;0.20;;;;;;;16.70;45.95;99726.34;4449870;32;32561;-80
2023/10/15 12:04:56;;;;;;;0.00;0.00;;;;;;;16.79;45.66;99715.91;4462808;32;33932;-81
2023/10/15 12:07:28;;;;;;;0.10;0.10;;;;;;;16.67;45.68;99716.75;4475007;32;32053;-81
2023/10/15 12:09:57;;;;;;;0.43;0.40;;;;;;;16.81;45.10;99723.81;4453219;32;32610;-81